Terminal Aerodrome Forecast
Issued by NWS Albuquerque, NM

Home | Current Version | Previous Version | Text Only | Print | Product List | Glossary On
Versions: 1 2 3 4 5 6 7 8 9 10 11 12 13 14 15 16
000
FTUS45 KABQ 232300
TAFABQ
TAF
KABQ 232332Z 2400/2424 VRB06KT P6SM BKN100
     FM240100 13010KT P6SM SCT100 BKN160
     FM240500 VRB05KT P6SM SCT160
     FM241900 21011KT P6SM FEW100=

USA.gov is the U.S. government's official web portal to all federal, state and local government web resources and services.